Time;durP1;ratioP1;P1;durP2;ratioP2;P2;SDS_P1;SDS_P2;PMS_P1;PMS_P2;Temp;Humidity;BMP_temperature;BMP_pressure;BME280_temperature;BME280_humidity;BME280_pressure;Samples;Min_cycle;Max_cycle;Signal;HPM_P1;HPM_P2
2022/11/15 06:01:33;;;;;;;13.45;7.20;;;7.00;99.90;;;;;;5943710;23;20040;-73
2022/11/15 06:04:18;;;;;;;20.38;13.77;;;7.00;99.90;;;;;;5053752;28;20060;-72
2022/11/15 06:07:03;;;;;;;11.30;6.90;;;7.00;99.90;;;;;;5040434;28;20241;-72
2022/11/15 06:09:47;;;;;;;14.02;7.20;;;7.00;99.90;;;;;;5041451;28;20103;-74
2022/11/15 06:12:31;;;;;;;10.13;6.20;;;7.00;99.90;;;;;;5041752;28;20062;-72
2022/11/15 06:15:16;;;;;;;13.13;6.45;;;7.00;99.90;;;;;;5042131;28;20345;-71
2022/11/15 06:18:00;;;;;;;13.07;6.85;;;7.00;99.90;;;;;;5041386;28;20056;-71
2022/11/15 06:20:45;;;;;;;12.77;6.35;;;7.00;99.90;;;;;;5040053;28;20414;-72
2022/11/15 06:23:32;;;;;;;9.63;6.82;;;7.00;99.90;;;;;;5021964;28;20056;-72
2022/11/15 06:26:16;;;;;;;12.32;6.22;;;7.00;99.90;;;;;;5022054;28;20081;-71
2022/11/15 06:29:03;;;;;;;12.30;7.10;;;7.00;99.90;;;;;;5021732;28;20093;-71
2022/11/15 06:31:47;;;;;;;12.48;6.90;;;7.00;99.90;;;;;;5022280;28;20117;-72
2022/11/15 06:34:31;;;;;;;10.25;6.88;;;7.00;99.90;;;;;;5022554;28;20101;-72
2022/11/15 06:37:15;;;;;;;11.40;6.70;;;7.00;99.90;;;;;;5035021;28;20091;-72
2022/11/15 06:39:59;;;;;;;13.95;7.45;;;7.10;99.90;;;;;;5021331;28;20081;-72
2022/11/15 06:42:43;;;;;;;11.82;7.05;;;7.10;99.90;;;;;;5021946;28;20144;-71
2022/11/15 06:45:28;;;;;;;11.68;7.13;;;7.10;99.90;;;;;;5022245;28;20076;-74
2022/11/15 06:48:12;;;;;;;14.25;7.45;;;7.20;99.90;;;;;;5021665;28;20052;-76
2022/11/15 06:51:00;;;;;;;15.35;7.30;;;7.10;99.90;;;;;;5021695;28;20399;-73
2022/11/15 06:53:45;;;;;;;11.60;7.43;;;7.20;99.90;;;;;;5025544;28;20231;-73
2022/11/15 06:56:29;;;;;;;10.43;6.82;;;7.20;99.90;;;;;;5025016;28;20255;-73
2022/11/15 06:59:14;;;;;;;12.02;6.93;;;7.30;99.90;;;;;;5020715;28;20052;-72
2022/11/15 07:01:58;;;;;;;10.80;6.32;;;7.30;99.90;;;;;;5025540;28;20044;-75
2022/11/15 07:04:42;;;;;;;12.25;6.82;;;7.40;99.90;;;;;;5011425;28;20073;-72
2022/11/15 07:07:26;;;;;;;12.75;7.22;;;7.50;99.90;;;;;;5022627;28;20037;-74
2022/11/15 07:10:10;;;;;;;10.02;5.60;;;7.60;99.90;;;;;;5023381;28;20037;-74
2022/11/15 07:12:55;;;;;;;10.18;6.50;;;7.70;99.90;;;;;;5023603;28;20037;-75
2022/11/15 07:15:39;;;;;;;11.70;5.90;;;7.80;99.90;;;;;;5023968;28;20264;-74
2022/11/15 07:18:24;;;;;;;10.60;5.85;;;7.90;99.90;;;;;;5024859;28;20369;-73
2022/11/15 07:21:10;;;;;;;12.40;6.15;;;8.00;99.90;;;;;;5024402;28;20231;-74
2022/11/15 07:23:54;;;;;;;13.27;6.10;;;8.10;99.90;;;;;;5024016;28;20228;-74
2022/11/15 07:26:39;;;;;;;10.80;6.00;;;8.20;99.90;;;;;;5025134;28;20044;-73
2022/11/15 07:29:23;;;;;;;8.68;5.80;;;8.30;99.90;;;;;;5022602;28;20069;-73
2022/11/15 07:32:07;;;;;;;12.15;7.32;;;8.60;99.90;;;;;;5022746;28;20037;-74
2022/11/15 07:34:51;;;;;;;12.60;6.97;;;8.70;99.90;;;;;;5024209;28;20044;-73
2022/11/15 07:37:35;;;;;;;15.98;7.38;;;8.90;99.90;;;;;;5024438;28;20032;-71
2022/11/15 07:40:19;;;;;;;13.30;6.60;;;9.00;99.90;;;;;;5022096;28;20350;-70
2022/11/15 07:43:06;;;;;;;14.65;6.93;;;9.10;99.90;;;;;;5013199;28;20373;-70
2022/11/15 07:45:51;;;;;;;13.53;6.70;;;9.40;99.90;;;;;;5022820;28;20060;-72
2022/11/15 07:48:36;;;;;;;13.98;6.53;;;9.50;99.90;;;;;;4989654;28;20061;-72
2022/11/15 07:51:21;;;;;;;13.25;6.60;;;9.70;99.90;;;;;;4963229;29;20339;-70
2022/11/15 07:54:05;;;;;;;12.38;5.90;;;9.90;99.90;;;;;;4944897;29;20054;-72
2022/11/15 07:56:49;;;;;;;11.32;5.75;;;10.20;99.90;;;;;;4945599;29;20035;-71
2022/11/15 07:59:34;;;;;;;10.75;5.18;;;10.40;99.90;;;;;;4945396;29;20102;-71
2022/11/15 08:02:19;;;;;;;11.02;5.43;;;10.30;99.90;;;;;;4945324;29;20067;-74
2022/11/15 08:05:03;;;;;;;9.80;5.15;;;10.40;99.90;;;;;;4958195;29;20106;-76
2022/11/15 08:07:48;;;;;;;12.82;5.78;;;10.50;99.90;;;;;;4964598;29;20224;-72
2022/11/15 08:10:33;;;;;;;11.68;4.80;;;10.50;99.90;;;;;;4952234;29;20292;-72
2022/11/15 08:13:17;;;;;;;10.82;5.43;;;10.60;99.90;;;;;;4945293;29;20351;-73
2022/11/15 08:16:05;;;;;;;11.90;5.53;;;10.70;99.90;;;;;;4944449;29;20039;-73
2022/11/15 08:18:49;;;;;;;9.13;4.93;;;10.90;99.90;;;;;;4945124;29;20075;-72
2022/11/15 08:21:33;;;;;;;9.27;4.72;;;10.90;99.90;;;;;;4944765;29;20332;-71
2022/11/15 08:24:17;;;;;;;13.93;5.65;;;10.90;99.90;;;;;;4944788;29;20278;-73
2022/11/15 08:27:02;;;;;;;11.30;5.13;;;11.00;99.90;;;;;;4944580;29;20047;-72
2022/11/15 08:29:48;;;;;;;12.27;5.50;;;10.90;99.90;;;;;;4944929;29;20074;-73
2022/11/15 08:32:32;;;;;;;11.00;4.90;;;10.80;99.90;;;;;;4944836;29;20148;-72
2022/11/15 08:35:17;;;;;;;11.05;5.32;;;10.80;99.90;;;;;;4944544;29;20159;-74
2022/11/15 08:38:02;;;;;;;10.90;5.07;;;10.70;99.90;;;;;;4944348;29;20039;-72
2022/11/15 08:40:46;;;;;;;11.52;5.00;;;10.80;99.90;;;;;;4944531;29;20034;-73
2022/11/15 08:43:31;;;;;;;9.98;5.15;;;10.90;99.90;;;;;;4944551;29;20039;-71
2022/11/15 08:46:15;;;;;;;10.98;5.80;;;11.00;99.90;;;;;;4943959;29;20066;-71
2022/11/15 08:48:59;;;;;;;12.10;5.57;;;11.10;99.90;;;;;;4925257;29;20075;-71
2022/11/15 08:51:43;;;;;;;14.77;5.53;;;11.20;99.90;;;;;;4925329;29;20286;-71
2022/11/15 08:54:28;;;;;;;14.23;5.47;;;11.30;99.90;;;;;;4925586;29;20112;-72
2022/11/15 08:57:12;;;;;;;12.05;5.40;;;11.50;99.90;;;;;;4925035;29;20225;-72
2022/11/15 08:59:57;;;;;;;12.52;5.25;;;11.60;99.90;;;;;;4924844;29;20107;-71
2022/11/15 09:02:41;;;;;;;8.93;5.28;;;11.70;99.90;;;;;;4952843;29;20364;-73
2022/11/15 09:05:26;;;;;;;9.48;4.93;;;11.80;99.90;;;;;;4944308;29;20042;-73
2022/11/15 09:08:11;;;;;;;12.65;5.68;;;12.10;99.90;;;;;;4943464;29;20042;-73
2022/11/15 09:10:55;;;;;;;10.40;5.53;;;12.30;99.90;;;;;;4943664;29;20237;-73
2022/11/15 09:13:39;;;;;;;11.20;5.97;;;12.60;99.90;;;;;;4943947;29;20038;-73
2022/11/15 09:16:24;;;;;;;11.13;5.95;;;12.60;99.90;;;;;;4938741;29;20066;-70
2022/11/15 09:19:08;;;;;;;12.60;6.10;;;12.80;99.90;;;;;;4943359;29;20038;-72
2022/11/15 09:21:53;;;;;;;10.85;5.35;;;13.00;99.90;;;;;;4944091;29;20035;-71
2022/11/15 09:24:37;;;;;;;11.50;5.45;;;13.30;99.90;;;;;;4943769;29;20099;-71
2022/11/15 09:27:21;;;;;;;10.02;5.00;;;13.50;99.90;;;;;;4943990;29;20050;-71
2022/11/15 09:30:06;;;;;;;9.57;5.15;;;13.80;99.90;;;;;;4942650;29;20626;-72
2022/11/15 09:32:51;;;;;;;7.85;4.05;;;14.10;99.90;;;;;;4936704;29;20047;-71
2022/11/15 09:35:36;;;;;;;9.40;4.22;;;14.30;99.90;;;;;;4924308;29;20067;-72
2022/11/15 09:38:20;;;;;;;7.28;3.80;;;14.50;99.90;;;;;;4924678;29;20105;-72
2022/11/15 09:41:13;;;;;;;8.57;3.83;;;14.60;99.90;;;;;;4924050;29;20058;-70
2022/11/15 09:44:17;;;;;;;8.15;3.88;;;14.70;99.90;;;;;;4924334;29;20039;-74
2022/11/15 09:47:20;;;;;;;6.00;3.50;;;14.80;99.90;;;;;;4928143;29;20095;-73
2022/11/15 09:50:11;;;;;;;7.88;3.70;;;14.80;99.90;;;;;;4957789;29;20050;-72
2022/11/15 09:52:39;;;;;;;10.20;4.07;;;14.80;99.90;;;;;;4958373;29;20091;-73
2022/11/15 09:55:08;;;;;;;6.88;3.70;;;14.80;99.90;;;;;;4943023;29;20050;-70
2022/11/15 09:58:22;;;;;;;8.00;3.30;;;15.00;99.90;;;;;;4943670;29;20023;-70
2022/11/15 10:00:52;;;;;;;9.15;4.10;;;15.10;99.90;;;;;;4926025;29;20226;-75
2022/11/15 10:03:31;;;;;;;10.63;4.18;;;15.30;99.90;;;;;;4937957;29;20125;-72
2022/11/15 10:06:02;;;;;;;8.40;3.50;;;15.40;99.90;;;;;;4930613;29;20035;-73
2022/11/15 10:08:40;;;;;;;9.57;4.03;;;15.70;99.90;;;;;;4935137;29;20128;-73
2022/11/15 10:11:17;;;;;;;7.22;4.00;;;15.80;99.90;;;;;;4942335;29;20102;-77
2022/11/15 10:13:46;;;;;;;7.72;3.90;;;15.70;99.90;;;;;;4943432;29;20091;-74
2022/11/15 10:16:39;;;;;;;8.57;4.13;;;15.60;99.90;;;;;;4942513;29;20284;-73
2022/11/15 10:19:19;;;;;;;7.40;3.80;;;15.60;99.90;;;;;;4937912;29;20028;-71
2022/11/15 10:22:09;;;;;;;7.05;3.05;;;15.60;99.90;;;;;;4942864;29;20205;-71
2022/11/15 10:24:43;;;;;;;5.88;3.53;;;15.50;99.70;;;;;;4943443;29;20035;-72
2022/11/15 10:27:19;;;;;;;8.57;3.13;;;15.50;99.90;;;;;;4957541;29;20036;-72
2022/11/15 10:29:49;;;;;;;8.32;3.10;;;15.40;99.70;;;;;;4943423;29;20035;-70
2022/11/15 10:32:20;;;;;;;6.90;3.15;;;15.40;99.60;;;;;;4942776;29;20043;-70
2022/11/15 10:34:48;;;;;;;8.35;3.67;;;15.20;99.90;;;;;;4937870;29;20032;-71
2022/11/15 10:37:13;;;;;;;7.45;3.42;;;15.20;99.90;;;;;;4942610;29;20069;-71
2022/11/15 10:39:39;;;;;;;9.50;4.22;;;15.30;99.90;;;;;;4943536;29;20036;-71
2022/11/15 10:42:27;;;;;;;14.23;4.35;;;15.30;99.90;;;;;;4946567;29;20095;-72
2022/11/15 10:44:53;;;;;;;;;;;15.20;99.90;;;;;;4945979;29;20209;-71
2022/11/15 10:47:31;;;;;;;8.75;4.07;;;15.20;99.90;;;;;;4944203;29;20226;-72
2022/11/15 10:50:06;;;;;;;9.87;4.10;;;15.20;99.90;;;;;;4963678;28;20060;-71
2022/11/15 10:52:36;;;;;;;9.05;3.75;;;15.30;99.90;;;;;;4929134;29;20106;-71
2022/11/15 10:55:25;;;;;;;8.05;4.00;;;15.20;99.90;;;;;;4946065;29;20107;-72
2022/11/15 10:58:05;;;;;;;10.40;4.35;;;15.10;99.90;;;;;;4961094;28;20459;-72
2022/11/15 11:00:41;;;;;;;8.63;4.50;;;15.20;99.90;;;;;;4946771;29;20075;-72
2022/11/15 11:03:34;;;;;;;12.07;4.72;;;15.10;99.90;;;;;;4946204;29;20043;-72
2022/11/15 11:06:16;;;;;;;11.25;4.53;;;15.10;99.90;;;;;;4938442;29;20036;-71
2022/11/15 11:09:00;;;;;;;11.95;4.60;;;15.10;99.90;;;;;;4946330;29;20083;-72
2022/11/15 11:11:48;;;;;;;6.18;3.78;;;15.10;99.90;;;;;;4946202;29;20133;-73
2022/11/15 11:14:34;;;;;;;9.60;4.72;;;15.00;99.90;;;;;;4953579;29;20070;-74
2022/11/15 11:17:09;;;;;;;8.50;4.70;;;15.00;99.90;;;;;;4964916;29;20042;-75
2022/11/15 11:19:47;;;;;;;15.73;6.03;;;15.00;99.90;;;;;;4965297;28;20057;-71
2022/11/15 11:22:45;;;;;;;9.70;4.60;;;15.00;99.90;;;;;;4965068;28;20313;-73
2022/11/15 11:25:41;;;;;;;9.20;4.88;;;15.00;99.90;;;;;;4943193;29;20055;-74
2022/11/15 11:28:32;;;;;;;10.38;4.53;;;15.10;99.90;;;;;;4944326;29;20123;-71
2022/11/15 11:31:03;;;;;;;10.75;4.68;;;15.20;99.90;;;;;;4945305;29;20036;-72
2022/11/15 11:33:40;;;;;;;10.35;4.85;;;15.30;99.90;;;;;;4946166;29;20107;-71
2022/11/15 11:36:30;;;;;;;9.15;4.20;;;15.50;99.90;;;;;;4945222;29;20034;-76
2022/11/15 11:39:27;;;;;;;12.52;4.60;;;15.60;99.90;;;;;;4946050;29;20036;-72
2022/11/15 11:42:26;;;;;;;12.90;4.47;;;15.80;99.90;;;;;;4940981;29;20052;-73
2022/11/15 11:45:02;;;;;;;;;;;15.80;99.90;;;;;;4927161;29;20491;-73
2022/11/15 11:47:35;;;;;;;10.82;4.50;;;15.90;99.90;;;;;;4934457;29;19907;-75
2022/11/15 11:50:13;;;;;;;11.80;5.03;;;16.00;99.90;;;;;;4945992;29;20366;-73
2022/11/15 11:53:06;;;;;;;12.48;4.40;;;16.00;99.90;;;;;;4945295;29;20099;-72
2022/11/15 11:55:52;;;;;;;6.70;4.35;;;16.00;99.90;;;;;;4946211;29;20238;-76
2022/11/15 11:58:27;;;;;;;7.75;4.15;;;16.20;99.90;;;;;;4945260;29;20310;-73
2022/11/15 12:01:03;;;;;;;10.00;4.25;;;16.30;99.90;;;;;;4945288;29;20055;-73
2022/11/15 12:03:53;;;;;;;11.05;4.15;;;16.30;99.80;;;;;;4945116;29;20047;-72
2022/11/15 12:06:25;;;;;;;9.20;3.40;;;16.30;99.90;;;;;;4959475;29;20221;-71
2022/11/15 12:09:29;;;;;;;6.90;3.63;;;16.50;99.90;;;;;;4944128;29;20413;-72
2022/11/15 12:11:59;;;;;;;11.50;3.35;;;16.60;99.70;;;;;;4926295;29;20036;-70
2022/11/15 12:14:47;;;;;;;6.75;3.10;;;17.30;98.90;;;;;;4935421;29;20039;-70
2022/11/15 12:17:15;;;;;;;;;;;17.80;98.00;;;;;;4945196;29;20148;-72
2022/11/15 12:19:42;;;;;;;7.97;4.10;;;17.90;97.90;;;;;;4945115;29;20024;-70
2022/11/15 12:22:22;;;;;;;7.38;3.85;;;17.80;97.70;;;;;;4943014;29;20048;-70
2022/11/15 12:24:57;;;;;;;7.53;4.15;;;17.50;98.30;;;;;;4944675;29;20046;-71
2022/11/15 12:27:41;;;;;;;9.30;4.40;;;17.20;98.70;;;;;;4944018;29;20103;-71
2022/11/15 12:30:19;;;;;;;11.02;4.32;;;17.00;99.10;;;;;;4944498;29;20091;-71
2022/11/15 12:33:31;;;;;;;8.32;4.47;;;16.80;99.30;;;;;;4944464;29;20318;-70
2022/11/15 12:36:03;;;;;;;8.15;3.72;;;16.50;99.90;;;;;;4943875;29;20050;-70
2022/11/15 12:38:54;;;;;;;9.90;4.72;;;16.30;99.90;;;;;;4944628;29;20038;-69
2022/11/15 12:41:38;;;;;;;11.07;4.85;;;16.10;99.90;;;;;;4944234;29;20337;-70
2022/11/15 12:44:12;;;;;;;9.30;4.70;;;15.90;99.90;;;;;;4944467;29;20044;-69
2022/11/15 12:46:41;;;;;;;7.38;3.95;;;15.90;99.90;;;;;;4944226;29;20026;-70
2022/11/15 12:49:25;;;;;;;7.93;4.07;;;15.70;99.90;;;;;;4944019;29;20034;-71
2022/11/15 12:51:52;;;;;;;8.93;4.22;;;15.60;99.90;;;;;;4944320;29;20114;-71
2022/11/15 12:54:23;;;;;;;9.43;4.15;;;15.60;99.90;;;;;;4943955;29;20344;-72
2022/11/15 12:57:06;;;;;;;9.38;3.72;;;15.60;99.90;;;;;;4944228;29;20122;-72
2022/11/15 12:59:57;;;;;;;10.55;3.83;;;15.60;99.90;;;;;;4942833;29;20147;-72
2022/11/15 13:02:36;;;;;;;7.53;3.83;;;15.50;99.90;;;;;;4943456;29;20296;-72
2022/11/15 13:05:15;;;;;;;7.03;3.08;;;15.40;99.90;;;;;;4942815;29;20351;-70
2022/11/15 13:07:40;;;;;;;7.72;3.38;;;15.40;99.90;;;;;;4943809;29;20175;-73
2022/11/15 13:10:12;;;;;;;9.05;3.42;;;15.40;99.90;;;;;;4943311;29;20055;-69
2022/11/15 13:12:43;;;;;;;7.35;3.65;;;15.40;99.90;;;;;;4944234;29;20027;-70
2022/11/15 13:15:12;;;;;;;8.15;3.10;;;15.40;99.90;;;;;;4943376;29;20342;-70
2022/11/15 13:17:47;;;;;;;;;;;15.40;99.90;;;;;;4943908;29;20257;-69
2022/11/15 13:20:16;;;;;;;6.85;3.22;;;15.40;99.90;;;;;;4943770;29;19946;-70
2022/11/15 13:22:54;;;;;;;;;;;15.50;99.90;;;;;;4943634;29;20031;-69
2022/11/15 13:25:45;;;;;;;8.00;3.03;;;15.50;99.90;;;;;;4942167;29;19977;-69
2022/11/15 13:28:13;;;;;;;7.15;2.85;;;15.40;99.90;;;;;;4943696;29;20321;-70
2022/11/15 13:30:46;;;;;;;8.57;3.10;;;15.20;99.90;;;;;;4943904;29;20055;-70
2022/11/15 13:33:35;;;;;;;6.13;3.50;;;15.20;99.90;;;;;;4942935;29;20111;-68
2022/11/15 13:36:13;;;;;;;7.60;3.50;;;15.10;99.90;;;;;;4943957;29;20027;-69
2022/11/15 13:38:40;;;;;;;8.32;3.20;;;15.00;99.90;;;;;;4943805;29;20024;-70
2022/11/15 13:41:24;;;;;;;8.27;3.45;;;15.00;99.90;;;;;;4942875;29;20447;-69
2022/11/15 13:43:52;;;;;;;6.25;3.50;;;15.10;99.90;;;;;;4943819;29;20045;-70
2022/11/15 13:46:22;;;;;;;8.60;3.60;;;15.10;99.90;;;;;;4943163;29;20094;-69
2022/11/15 13:49:14;;;;;;;6.32;3.45;;;15.00;99.90;;;;;;4975384;28;20054;-72
2022/11/15 13:51:53;;;;;;;6.72;3.78;;;15.00;99.90;;;;;;4943503;29;20055;-72
2022/11/15 13:54:28;;;;;;;7.30;3.33;;;15.00;99.90;;;;;;4943212;29;20046;-72
2022/11/15 13:56:58;;;;;;;13.98;4.07;;;15.00;99.90;;;;;;4943223;29;20032;-74
2022/11/15 13:59:28;;;;;;;7.57;3.58;;;15.00;99.90;;;;;;4942916;29;20177;-73
2022/11/15 14:01:56;;;;;;;7.53;3.33;;;15.00;99.90;;;;;;4941873;29;20106;-74
2022/11/15 14:04:23;;;;;;;7.78;3.28;;;15.00;99.90;;;;;;4942872;29;20111;-78
2022/11/15 14:06:53;;;;;;;6.97;3.65;;;14.90;99.90;;;;;;4942998;29;20064;-75
2022/11/15 14:09:34;;;;;;;5.90;3.13;;;14.90;99.90;;;;;;4942018;29;20361;-74
2022/11/15 14:12:02;;;;;;;6.85;3.15;;;14.80;99.90;;;;;;4942993;29;20040;-70
2022/11/15 14:14:29;;;;;;;5.90;3.10;;;14.80;99.90;;;;;;4941835;29;20110;-70
2022/11/15 14:17:00;;;;;;;9.15;4.50;;;14.70;99.90;;;;;;4943278;29;20043;-70
2022/11/15 14:19:26;;;;;;;9.35;5.47;;;14.60;99.90;;;;;;4942527;29;20034;-70
2022/11/15 14:22:13;;;;;;;8.90;4.32;;;14.50;99.90;;;;;;4942723;29;20035;-69
2022/11/15 14:24:40;;;;;;;7.90;3.70;;;14.50;99.90;;;;;;4943031;29;20032;-68
2022/11/15 14:27:19;;;;;;;5.72;3.40;;;14.40;99.90;;;;;;4942673;29;20031;-69
2022/11/15 14:29:45;;;;;;;7.32;3.40;;;14.30;99.90;;;;;;4943105;29;20039;-70
2022/11/15 14:32:28;;;;;;;6.38;3.38;;;14.30;99.90;;;;;;4942850;29;20032;-69
2022/11/15 14:35:01;;;;;;;7.80;3.60;;;14.30;99.90;;;;;;4943592;29;20071;-70
2022/11/15 14:37:32;;;;;;;11.95;4.40;;;14.30;99.90;;;;;;4942760;29;20042;-69
2022/11/15 14:39:58;;;;;;;10.98;5.85;;;14.30;99.90;;;;;;4943134;29;20036;-69
2022/11/15 14:42:24;;;;;;;14.15;5.05;;;14.30;99.90;;;;;;4942642;29;20042;-74
2022/11/15 14:44:51;;;;;;;8.43;4.88;;;14.20;99.90;;;;;;4942989;29;20032;-70
2022/11/15 14:47:17;;;;;;;9.38;4.75;;;14.20;99.90;;;;;;4957261;29;20106;-71
2022/11/15 14:49:43;;;;;;;9.88;4.53;;;14.10;99.90;;;;;;4941765;29;20042;-71
2022/11/15 14:52:27;;;;;;;8.48;4.72;;;14.00;99.90;;;;;;4941411;29;20109;-70
2022/11/15 14:54:57;;;;;;;7.90;4.75;;;14.00;99.90;;;;;;4941731;29;20194;-69
2022/11/15 14:57:24;;;;;;;9.00;4.78;;;13.90;99.90;;;;;;4942641;29;20036;-70
2022/11/15 14:59:50;;;;;;;10.13;4.90;;;13.80;99.90;;;;;;4943135;29;20056;-70
2022/11/15 15:02:17;;;;;;;8.65;4.60;;;13.80;99.90;;;;;;4941667;29;20251;-70
2022/11/15 15:04:43;;;;;;;7.00;4.07;;;13.70;99.90;;;;;;4943104;29;20103;-69
2022/11/15 15:07:09;;;;;;;9.15;3.90;;;13.70;99.90;;;;;;4941977;29;20458;-71
2022/11/15 15:09:34;;;;;;;10.52;5.95;;;13.70;99.90;;;;;;4942511;29;20194;-68
2022/11/15 15:12:00;;;;;;;8.32;4.20;;;13.60;99.90;;;;;;4942783;29;20023;-71
2022/11/15 15:14:26;;;;;;;9.25;4.97;;;13.60;99.90;;;;;;4942141;29;20309;-69
2022/11/15 15:16:52;;;;;;;9.13;4.32;;;13.50;99.90;;;;;;4943093;29;20043;-70
2022/11/15 15:19:17;;;;;;;6.90;3.95;;;13.50;99.90;;;;;;4942446;29;20079;-71
2022/11/15 15:21:43;;;;;;;6.90;3.40;;;13.40;99.90;;;;;;4942695;29;20031;-70
2022/11/15 15:24:15;;;;;;;6.55;4.60;;;13.40;99.90;;;;;;4941790;29;20059;-70
2022/11/15 15:26:41;;;;;;;9.77;4.30;;;13.40;99.90;;;;;;4942946;29;20107;-70
2022/11/15 15:29:08;;;;;;;7.55;3.85;;;13.40;99.90;;;;;;4945782;29;20265;-69
2022/11/15 15:31:34;;;;;;;8.20;3.95;;;13.50;99.90;;;;;;4945808;29;20027;-69
2022/11/15 15:34:00;;;;;;;7.88;3.80;;;13.50;99.90;;;;;;4945859;29;20094;-69
2022/11/15 15:36:26;;;;;;;10.85;3.50;;;13.40;99.90;;;;;;4945328;29;20555;-69
2022/11/15 15:38:52;;;;;;;6.85;3.45;;;13.50;99.90;;;;;;4946086;29;20091;-69
2022/11/15 15:41:18;;;;;;;9.25;3.88;;;13.50;99.90;;;;;;4945189;29;20035;-69
2022/11/15 15:43:47;;;;;;;4.88;2.63;;;13.50;99.90;;;;;;4946157;29;20036;-69
2022/11/15 15:46:18;;;;;;;6.88;2.67;;;13.50;99.90;;;;;;4945799;29;20091;-71
2022/11/15 15:48:44;;;;;;;6.93;2.75;;;13.50;99.90;;;;;;4946341;29;20023;-69
2022/11/15 15:51:11;;;;;;;6.03;2.70;;;13.50;99.90;;;;;;4945534;29;20039;-71
2022/11/15 15:53:37;;;;;;;5.50;2.53;;;13.50;99.90;;;;;;4945882;29;20062;-70
2022/11/15 15:56:04;;;;;;;6.25;2.95;;;13.50;99.90;;;;;;4944406;29;20066;-69
2022/11/15 15:58:31;;;;;;;4.68;2.75;;;13.50;99.90;;;;;;4945329;29;20081;-69
2022/11/15 16:00:57;;;;;;;5.47;2.30;;;13.40;99.90;;;;;;4944839;29;20261;-70
2022/11/15 16:03:23;;;;;;;6.25;2.83;;;13.50;99.90;;;;;;4944390;29;20051;-69
2022/11/15 16:05:50;;;;;;;5.95;2.92;;;13.50;99.90;;;;;;4945583;29;20027;-70
2022/11/15 16:08:23;;;;;;;4.97;2.67;;;13.60;99.90;;;;;;4944730;29;20036;-69
2022/11/15 16:10:50;;;;;;;8.55;2.60;;;13.60;99.90;;;;;;4945336;29;20130;-70
2022/11/15 16:13:16;;;;;;;5.68;2.67;;;13.60;99.90;;;;;;4945153;29;20067;-69
2022/11/15 16:15:42;;;;;;;5.95;2.85;;;13.70;99.90;;;;;;4945274;29;20360;-73
2022/11/15 16:18:16;;;;;;;6.85;2.92;;;13.70;99.90;;;;;;4943738;29;20032;-70
2022/11/15 16:20:49;;;;;;;6.68;2.70;;;13.70;99.90;;;;;;4945345;29;20147;-70
2022/11/15 16:23:16;;;;;;;6.60;2.70;;;13.70;99.90;;;;;;4944498;29;20102;-71
2022/11/15 16:25:52;;;;;;;5.70;3.10;;;13.70;99.90;;;;;;4944871;29;20100;-72
2022/11/15 16:28:27;;;;;;;5.88;2.85;;;13.80;99.90;;;;;;4944781;29;20035;-73
2022/11/15 16:31:10;;;;;;;6.43;3.13;;;13.80;99.90;;;;;;4945147;29;20082;-74
2022/11/15 16:33:36;;;;;;;5.93;2.60;;;13.80;99.90;;;;;;4945616;29;20036;-73
2022/11/15 16:36:03;;;;;;;6.40;3.30;;;13.80;99.90;;;;;;4945681;29;20033;-75
2022/11/15 16:38:30;;;;;;;5.97;2.90;;;13.80;99.90;;;;;;4944973;29;20318;-74
2022/11/15 16:40:56;;;;;;;5.00;2.67;;;13.80;99.90;;;;;;4945151;29;20099;-74
2022/11/15 16:43:21;;;;;;;4.68;2.70;;;13.80;99.90;;;;;;4944235;29;20057;-73
2022/11/15 16:45:51;;;;;;;6.45;2.92;;;13.80;99.90;;;;;;4944042;29;20090;-72
2022/11/15 16:48:50;;;;;;;9.15;3.22;;;13.70;99.90;;;;;;4944490;29;20039;-72
2022/11/15 16:51:16;;;;;;;8.23;4.78;;;13.70;99.90;;;;;;4943700;29;20322;-72
2022/11/15 16:53:47;;;;;;;11.13;5.18;;;13.50;99.90;;;;;;4944646;29;20325;-72
2022/11/15 16:56:18;;;;;;;9.23;4.90;;;13.40;99.90;;;;;;4944338;29;20047;-75
2022/11/15 16:58:44;;;;;;;9.60;4.35;;;13.20;99.90;;;;;;4944836;29;20031;-72
2022/11/15 17:01:18;;;;;;;12.98;4.78;;;13.10;99.90;;;;;;4943984;29;20023;-72
2022/11/15 17:03:43;;;;;;;9.60;4.95;;;13.10;99.90;;;;;;4944570;29;20050;-73
2022/11/15 17:06:17;;;;;;;6.80;4.10;;;13.00;99.90;;;;;;4943148;29;20226;-72
2022/11/15 17:08:43;;;;;;;7.55;3.28;;;13.00;99.90;;;;;;4944464;29;20038;-72
2022/11/15 17:11:15;;;;;;;6.93;3.45;;;13.10;99.90;;;;;;4935009;28;20046;-71
2022/11/15 17:14:03;;;;;;;6.80;3.03;;;13.20;99.90;;;;;;4963324;29;20031;-72
2022/11/15 17:16:29;;;;;;;5.85;3.13;;;13.40;99.90;;;;;;4969337;28;20047;-74
2022/11/15 17:18:55;;;;;;;5.75;2.75;;;13.50;99.90;;;;;;4963239;29;20043;-72
2022/11/15 17:21:21;;;;;;;6.53;3.15;;;13.50;99.90;;;;;;4963163;29;20062;-74
2022/11/15 17:23:47;;;;;;;6.78;3.10;;;13.60;99.90;;;;;;4963052;29;20173;-74
2022/11/15 17:26:16;;;;;;;7.30;3.10;;;13.60;99.90;;;;;;4963327;29;20102;-74
2022/11/15 17:28:42;;;;;;;5.82;3.22;;;13.70;99.90;;;;;;4963624;29;20035;-73
2022/11/15 17:31:15;;;;;;;6.80;3.45;;;13.70;99.90;;;;;;4963128;29;20206;-74
2022/11/15 17:33:41;;;;;;;5.82;2.90;;;13.70;99.90;;;;;;4963327;29;20082;-75
2022/11/15 17:36:10;;;;;;;10.20;3.85;;;13.60;99.90;;;;;;4965701;29;20031;-73
2022/11/15 17:38:42;;;;;;;6.20;3.38;;;13.60;99.90;;;;;;4965617;29;20035;-70
2022/11/15 17:41:15;;;;;;;6.38;3.28;;;13.60;99.90;;;;;;4964505;29;20034;-70
2022/11/15 17:43:41;;;;;;;8.55;3.90;;;13.60;99.90;;;;;;4964131;29;20067;-72
2022/11/15 17:46:11;;;;;;;7.28;3.40;;;13.50;99.90;;;;;;4979130;28;20034;-70
2022/11/15 17:48:38;;;;;;;8.70;4.05;;;13.60;99.90;;;;;;4963953;29;20031;-71
2022/11/15 17:51:06;;;;;;;5.07;3.00;;;13.50;99.90;;;;;;4963506;28;20031;-71
2022/11/15 17:53:36;;;;;;;6.00;3.20;;;13.50;99.90;;;;;;4963969;29;20050;-74
2022/11/15 17:56:08;;;;;;;5.47;2.92;;;13.50;99.90;;;;;;4962839;29;20034;-72
2022/11/15 17:58:34;;;;;;;6.78;3.30;;;13.50;99.90;;;;;;4963584;29;20031;-70
2022/11/15 18:01:08;;;;;;;4.63;2.42;;;13.60;99.90;;;;;;4964549;29;20541;-73
2022/11/15 18:03:38;;;;;;;5.50;2.90;;;13.60;99.90;;;;;;4963511;29;20086;-72
2022/11/15 18:06:05;;;;;;;4.75;2.25;;;13.50;99.90;;;;;;4963430;29;20344;-72
2022/11/15 18:08:32;;;;;;;5.40;3.20;;;13.60;99.90;;;;;;4993887;28;20039;-72
2022/11/15 18:11:25;;;;;;;5.35;2.70;;;13.50;99.90;;;;;;4962966;29;20027;-71
2022/11/15 18:13:53;;;;;;;5.60;2.97;;;13.50;99.90;;;;;;4962805;28;20237;-71
2022/11/15 18:16:24;;;;;;;4.85;2.67;;;13.50;99.90;;;;;;4961923;29;20031;-69
2022/11/15 18:18:53;;;;;;;6.50;2.92;;;13.50;99.90;;;;;;4962542;29;20224;-70
2022/11/15 18:21:20;;;;;;;4.80;2.67;;;13.50;99.90;;;;;;4961959;29;20035;-71
2022/11/15 18:23:46;;;;;;;4.53;3.10;;;13.40;99.90;;;;;;4977220;28;20043;-70
2022/11/15 18:26:16;;;;;;;6.22;3.30;;;13.40;99.90;;;;;;4962343;29;20023;-71
2022/11/15 18:28:44;;;;;;;6.43;3.63;;;13.40;99.90;;;;;;4962184;29;20082;-72
2022/11/15 18:31:14;;;;;;;5.68;3.35;;;13.30;99.90;;;;;;4962390;29;20031;-71
2022/11/15 18:33:41;;;;;;;7.25;3.65;;;13.20;99.90;;;;;;4962518;29;20042;-71
2022/11/15 18:36:10;;;;;;;11.52;3.75;;;13.10;99.90;;;;;;4962506;29;20030;-72
2022/11/15 18:38:36;;;;;;;8.38;3.83;;;13.10;99.90;;;;;;4962138;29;20023;-71
2022/11/15 18:41:12;;;;;;;8.63;3.78;;;12.90;99.90;;;;;;4960906;29;20338;-71
2022/11/15 18:43:39;;;;;;;11.48;4.78;;;13.00;99.90;;;;;;4942612;29;20070;-72
2022/11/15 18:46:07;;;;;;;6.72;3.70;;;12.90;99.90;;;;;;4942912;29;20032;-73
2022/11/15 18:48:38;;;;;;;8.88;4.28;;;12.90;99.90;;;;;;4973910;28;20050;-72
2022/11/15 18:51:09;;;;;;;12.05;6.13;;;12.90;99.90;;;;;;4962597;29;20046;-71
2022/11/15 18:53:36;;;;;;;8.45;4.63;;;12.90;99.90;;;;;;4962243;29;20098;-74
2022/11/15 18:56:17;;;;;;;8.82;4.00;;;12.90;99.90;;;;;;4962312;29;20039;-72
2022/11/15 18:58:47;;;;;;;9.32;5.63;;;12.90;99.90;;;;;;4961040;29;20034;-72
2022/11/15 19:01:18;;;;;;;8.75;4.20;;;12.80;99.90;;;;;;4976940;28;20257;-71
2022/11/15 19:03:50;;;;;;;9.55;4.47;;;12.80;99.90;;;;;;4965222;29;20051;-73
2022/11/15 19:06:18;;;;;;;9.10;5.00;;;12.80;99.90;;;;;;4965270;29;20074;-74
2022/11/15 19:08:46;;;;;;;9.90;4.78;;;12.80;99.90;;;;;;4965832;29;20039;-73
2022/11/15 19:11:22;;;;;;;9.88;5.88;;;12.80;99.90;;;;;;4965623;28;20023;-73
2022/11/15 19:13:54;;;;;;;8.50;5.18;;;12.70;99.90;;;;;;4965671;29;20041;-72
2022/11/15 19:16:20;;;;;;;9.70;5.50;;;12.70;99.90;;;;;;4965121;29;20039;-72
2022/11/15 19:18:46;;;;;;;8.20;4.85;;;12.60;99.90;;;;;;4965553;29;20464;-71
2022/11/15 19:21:12;;;;;;;12.07;5.03;;;12.60;99.90;;;;;;4965636;29;20027;-72
2022/11/15 19:23:40;;;;;;;8.88;4.80;;;12.50;99.90;;;;;;4962343;29;20027;-73
2022/11/15 19:26:12;;;;;;;10.17;5.17;;;12.50;99.90;;;;;;4965032;29;20035;-73
2022/11/15 19:28:39;;;;;;;8.95;5.00;;;12.50;99.90;;;;;;4965129;29;20038;-73
2022/11/15 19:31:07;;;;;;;9.07;5.20;;;12.40;99.90;;;;;;4964895;29;20035;-73
2022/11/15 19:33:34;;;;;;;9.63;5.82;;;12.40;99.90;;;;;;4964908;29;20039;-72